Time;durP1;ratioP1;P1;durP2;ratioP2;P2;SDS_P1;SDS_P2;PMS_P1;PMS_P2;Temp;Humidity;BMP_temperature;BMP_pressure;BME280_temperature;BME280_humidity;BME280_pressure;Samples;Min_cycle;Max_cycle;Signal;HPM_P1;HPM_P2
2021/06/03 07:32:12;;;;;;;8.88;2.65;;;15.70;99.90;;;;;;6137087;22;19917;-91
2021/06/03 07:34:39;;;;;;;7.28;2.60;;;15.90;99.90;;;;;;6154425;23;20025;-89
2021/06/03 07:37:06;;;;;;;6.80;2.40;;;16.00;99.90;;;;;;6152521;23;20407;-90
2021/06/03 07:39:33;;;;;;;7.85;2.30;;;16.10;99.90;;;;;;6153139;23;20064;-90
2021/06/03 07:42:01;;;;;;;6.07;2.30;;;16.10;99.90;;;;;;6154276;23;20088;-91
2021/06/03 07:44:28;;;;;;;7.07;2.70;;;16.20;99.90;;;;;;6153352;23;20029;-93
2021/06/03 07:46:55;;;;;;;7.90;2.42;;;16.30;99.90;;;;;;6154486;23;20021;-90
2021/06/03 07:49:22;;;;;;;7.78;2.80;;;16.40;99.90;;;;;;6156090;23;20026;-91
2021/06/03 07:51:49;;;;;;;8.25;2.05;;;16.40;99.90;;;;;;6154258;23;20318;-91
2021/06/03 07:54:16;;;;;;;9.20;2.78;;;16.40;99.90;;;;;;6134806;23;20029;-91
2021/06/03 07:56:43;;;;;;;11.95;2.53;;;16.50;99.90;;;;;;6154906;23;20529;-92
2021/06/03 07:59:10;;;;;;;8.40;2.60;;;16.50;99.90;;;;;;6154141;23;20024;-90
2021/06/03 08:01:37;;;;;;;8.18;2.50;;;16.50;99.90;;;;;;6154957;23;20020;-93
2021/06/03 08:04:05;;;;;;;7.25;2.13;;;16.50;99.90;;;;;;6154112;23;20022;-92
2021/06/03 08:06:32;;;;;;;10.27;2.78;;;16.50;99.90;;;;;;6155720;23;20064;-91
2021/06/03 08:08:59;;;;;;;9.07;2.30;;;16.40;99.90;;;;;;6154789;23;20014;-93
2021/06/03 08:11:27;;;;;;;7.85;2.50;;;16.30;99.90;;;;;;6154081;23;20322;-90
2021/06/03 08:13:54;;;;;;;8.77;2.45;;;16.30;99.90;;;;;;6154780;23;20021;-91
2021/06/03 08:16:21;;;;;;;7.10;2.60;;;16.30;99.90;;;;;;6152737;23;20021;-90
2021/06/03 08:18:49;;;;;;;7.20;2.92;;;16.30;99.90;;;;;;6154510;23;20464;-91
2021/06/03 08:21:16;;;;;;;9.35;2.70;;;16.20;99.90;;;;;;6153505;23;20048;-91
2021/06/03 08:23:43;;;;;;;14.65;3.13;;;16.30;99.90;;;;;;6153985;23;20021;-91
2021/06/03 08:26:12;;;;;;;5.93;2.50;;;16.20;99.90;;;;;;6154571;23;20472;-91
2021/06/03 08:28:40;;;;;;;6.90;2.45;;;16.30;99.90;;;;;;6154129;23;20041;-90
2021/06/03 08:31:10;;;;;;;8.32;2.10;;;16.30;99.90;;;;;;6153110;23;20032;-91
2021/06/03 08:33:40;;;;;;;8.50;2.70;;;16.40;99.90;;;;;;6154420;23;20014;-91
2021/06/03 08:36:07;;;;;;;9.15;2.40;;;16.50;99.90;;;;;;6153791;23;20029;-92
2021/06/03 08:38:34;;;;;;;17.20;3.08;;;16.60;99.90;;;;;;6155862;23;20025;-91
2021/06/03 08:41:02;;;;;;;7.78;2.95;;;16.60;99.90;;;;;;6154916;23;20014;-91
2021/06/03 08:43:32;;;;;;;5.95;2.22;;;16.60;99.90;;;;;;6153832;23;20022;-93
2021/06/03 08:46:03;;;;;;;10.00;2.67;;;16.60;99.90;;;;;;6153676;23;20037;-93
2021/06/03 08:48:31;;;;;;;7.38;2.88;;;16.60;99.90;;;;;;6155258;23;20025;-91
2021/06/03 08:51:04;;;;;;;6.13;2.28;;;16.60;99.90;;;;;;6158629;23;20385;-90
2021/06/03 08:53:33;;;;;;;8.20;2.47;;;16.70;99.90;;;;;;6156483;23;20021;-92
2021/06/03 08:56:18;;;;;;;7.55;2.58;;;16.70;99.90;;;;;;6161392;23;20036;-91
2021/06/03 08:58:49;;;;;;;6.93;2.25;;;16.80;99.90;;;;;;6158614;23;20041;-91
2021/06/03 09:01:20;;;;;;;8.85;2.50;;;16.90;99.90;;;;;;6158072;23;20029;-92
2021/06/03 09:03:48;;;;;;;6.00;2.35;;;16.80;99.90;;;;;;6159286;23;20072;-91
2021/06/03 09:06:17;;;;;;;6.55;2.42;;;16.60;99.90;;;;;;6155443;23;20020;-92
2021/06/03 09:08:58;;;;;;;5.78;2.30;;;16.60;99.90;;;;;;6159521;23;20369;-94
2021/06/03 09:11:27;;;;;;;6.30;2.17;;;16.50;99.90;;;;;;6155268;23;20018;-91
2021/06/03 09:13:57;;;;;;;6.82;2.40;;;16.50;99.90;;;;;;6167094;23;20017;-90
2021/06/03 09:16:37;;;;;;;10.82;2.67;;;16.40;99.90;;;;;;6172038;23;22295;-90
2021/06/03 09:19:12;;;;;;;11.18;3.05;;;16.30;99.90;;;;;;6174546;23;20001;-89
2021/06/03 09:21:51;;;;;;;7.47;2.67;;;16.20;99.90;;;;;;6157638;23;20029;-92
2021/06/03 09:24:21;;;;;;;6.05;2.67;;;16.20;99.90;;;;;;6154811;23;20017;-90
2021/06/03 09:26:50;;;;;;;8.13;2.95;;;16.10;99.90;;;;;;6153428;23;20085;-86
2021/06/03 09:29:31;;;;;;;6.55;3.13;;;16.10;99.90;;;;;;6152431;23;20093;-89
2021/06/03 09:32:10;;;;;;;5.82;2.40;;;16.10;99.90;;;;;;6152455;23;20021;-90
2021/06/03 09:34:40;;;;;;;4.45;1.83;;;16.20;99.90;;;;;;6151998;23;20026;-89
2021/06/03 09:37:09;;;;;;;6.00;2.22;;;16.20;99.90;;;;;;6151929;23;20060;-90
2021/06/03 09:39:43;;;;;;;8.52;2.15;;;16.30;99.90;;;;;;6153235;23;20029;-89
2021/06/03 09:42:14;;;;;;;5.97;1.95;;;16.40;99.90;;;;;;6151722;23;20073;-90
2021/06/03 09:44:56;;;;;;;8.95;2.17;;;16.50;99.90;;;;;;6154077;23;20024;-88
2021/06/03 09:47:33;;;;;;;8.55;2.17;;;16.60;99.90;;;;;;6152418;23;20083;-90
2021/06/03 09:50:00;;;;;;;7.25;1.90;;;16.60;99.90;;;;;;6153150;23;20146;-92
2021/06/03 09:52:31;;;;;;;;;;;16.50;99.90;;;;;;6152918;23;20014;-91
2021/06/03 09:55:12;;;;;;;10.02;2.42;;;16.50;99.90;;;;;;6152106;23;19967;-90
2021/06/03 09:57:43;;;;;;;5.65;1.80;;;16.50;99.90;;;;;;6147519;23;20021;-91
2021/06/03 10:00:17;;;;;;;7.65;1.83;;;16.60;99.90;;;;;;6148455;23;20017;-90
2021/06/03 10:02:45;;;;;;;7.35;2.08;;;16.60;99.90;;;;;;6152744;23;20385;-91
2021/06/03 10:05:18;;;;;;;5.90;1.73;;;16.60;99.90;;;;;;6152358;23;20483;-92
2021/06/03 10:07:58;;;;;;;4.82;1.58;;;16.70;99.90;;;;;;6153253;23;20069;-93
2021/06/03 10:10:29;;;;;;;5.30;1.85;;;16.70;99.90;;;;;;6151891;23;20453;-91
2021/06/03 10:12:56;;;;;;;6.10;1.70;;;16.60;99.90;;;;;;6152407;23;20021;-90
2021/06/03 10:15:25;;;;;;;;;;;16.60;99.90;;;;;;6152216;23;20025;-90
2021/06/03 10:18:00;;;;;;;5.35;1.60;;;16.60;99.90;;;;;;6151376;23;19971;-89
2021/06/03 10:20:36;;;;;;;4.78;1.40;;;16.60;99.90;;;;;;6151620;23;20448;-91
2021/06/03 10:23:07;;;;;;;3.78;1.75;;;16.50;99.90;;;;;;6152927;23;20040;-89
2021/06/03 10:25:39;;;;;;;4.93;1.60;;;16.50;99.90;;;;;;6153241;23;20397;-89
2021/06/03 10:28:14;;;;;;;8.98;2.20;;;16.50;99.90;;;;;;6151789;23;20017;-90
2021/06/03 10:30:57;;;;;;;6.97;1.73;;;16.50;99.90;;;;;;6151927;23;20068;-90
2021/06/03 10:33:30;;;;;;;6.18;1.63;;;16.50;99.90;;;;;;6152747;23;20337;-90
2021/06/03 10:36:01;;;;;;;5.10;1.70;;;16.50;99.90;;;;;;6152983;23;20033;-90
2021/06/03 10:38:28;;;;;;;3.53;1.23;;;16.40;99.90;;;;;;6152328;23;20353;-90
2021/06/03 10:41:08;;;;;;;5.93;1.88;;;16.50;99.90;;;;;;6153056;23;20088;-92
2021/06/03 10:43:37;;;;;;;4.30;1.70;;;16.50;99.90;;;;;;6153735;23;20041;-90
2021/06/03 10:46:08;;;;;;;3.85;1.60;;;16.50;99.90;;;;;;6152539;23;20464;-92
2021/06/03 10:48:35;;;;;;;6.80;1.90;;;16.50;99.90;;;;;;6153912;23;20017;-93
2021/06/03 10:51:09;;;;;;;3.47;1.38;;;16.50;99.90;;;;;;6155059;23;20013;-92
2021/06/03 10:53:47;;;;;;;4.90;1.60;;;16.50;99.90;;;;;;6154396;23;20109;-93
2021/06/03 10:56:21;;;;;;;5.57;1.65;;;16.50;99.90;;;;;;6155026;23;20037;-91
2021/06/03 10:58:49;;;;;;;4.25;1.30;;;16.50;99.90;;;;;;6154296;23;20010;-92
2021/06/03 11:01:23;;;;;;;5.45;1.83;;;16.50;99.90;;;;;;6152440;23;20440;-91
2021/06/03 11:03:55;;;;;;;6.07;1.60;;;16.50;99.90;;;;;;6151978;23;20048;-91
2021/06/03 11:06:24;;;;;;;4.75;1.63;;;16.50;99.90;;;;;;6152613;23;20033;-90
2021/06/03 11:09:02;;;;;;;3.92;1.60;;;16.50;99.90;;;;;;6153711;23;20021;-94
2021/06/03 11:11:36;;;;;;;4.53;1.52;;;16.40;99.90;;;;;;6152998;23;20543;-91
2021/06/03 11:14:17;;;;;;;3.60;1.52;;;16.40;99.90;;;;;;6153520;23;20013;-91
2021/06/03 11:16:46;;;;;;;6.72;1.60;;;16.30;99.90;;;;;;6154165;23;20029;-93
2021/06/03 11:19:15;;;;;;;4.45;1.58;;;16.30;99.90;;;;;;6155060;23;20021;-92
2021/06/03 11:21:42;;;;;;;5.47;1.45;;;16.40;99.90;;;;;;6152685;23;20021;-93
2021/06/03 11:24:11;;;;;;;3.78;1.42;;;16.40;99.90;;;;;;6154560;23;20371;-91
2021/06/03 11:26:42;;;;;;;8.68;1.75;;;16.50;99.90;;;;;;6155002;23;20044;-93
2021/06/03 11:29:28;;;;;;;5.05;1.52;;;16.50;99.90;;;;;;6153958;23;20017;-92
2021/06/03 11:32:04;;;;;;;3.78;1.40;;;16.60;99.90;;;;;;6155026;23;20349;-91
2021/06/03 11:34:41;;;;;;;5.78;1.50;;;16.60;99.90;;;;;;6154106;23;20049;-90
2021/06/03 11:37:28;;;;;;;5.47;1.85;;;16.60;99.90;;;;;;6154187;23;20022;-91
2021/06/03 11:40:16;;;;;;;5.88;1.60;;;16.70;99.90;;;;;;6155407;23;20013;-91
2021/06/03 11:42:50;;;;;;;3.88;1.75;;;16.70;99.90;;;;;;6155384;23;20445;-92
2021/06/03 11:45:24;;;;;;;7.53;1.75;;;16.70;99.90;;;;;;6155299;23;20029;-92
2021/06/03 11:47:57;;;;;;;4.10;1.80;;;16.80;99.90;;;;;;6155854;23;20025;-91
2021/06/03 11:50:24;;;;;;;4.47;1.50;;;16.80;99.90;;;;;;6154742;23;20029;-91
2021/06/03 11:52:55;;;;;;;5.68;1.67;;;16.80;99.90;;;;;;6154997;23;20033;-91
2021/06/03 11:55:44;;;;;;;3.55;1.40;;;16.80;99.90;;;;;;6154672;23;20457;-91
2021/06/03 11:58:22;;;;;;;4.90;1.88;;;16.90;99.90;;;;;;6154321;23;20031;-92
2021/06/03 12:01:10;;;;;;;4.53;1.73;;;16.90;99.90;;;;;;6154315;23;20017;-93
2021/06/03 12:03:40;;;;;;;6.70;1.67;;;16.90;99.90;;;;;;6155563;23;20021;-91
2021/06/03 12:06:14;;;;;;;6.25;1.55;;;16.90;99.90;;;;;;6153388;23;20021;-91
2021/06/03 12:08:48;;;;;;;5.43;1.55;;;17.00;99.90;;;;;;6154729;23;20031;-91
2021/06/03 12:11:18;;;;;;;3.80;1.35;;;17.00;99.90;;;;;;6153972;23;20013;-93
2021/06/03 12:13:46;;;;;;;5.55;1.38;;;17.00;99.90;;;;;;6154552;23;20488;-91
2021/06/03 12:16:14;;;;;;;5.05;1.67;;;17.00;99.90;;;;;;6153524;23;20018;-91
2021/06/03 12:18:43;;;;;;;3.00;1.63;;;16.90;99.90;;;;;;6154357;23;20029;-91
2021/06/03 12:21:13;;;;;;;5.97;1.58;;;16.90;99.90;;;;;;6152691;23;20068;-89
2021/06/03 12:23:51;;;;;;;4.32;1.63;;;16.80;99.90;;;;;;6152277;23;20014;-91
2021/06/03 12:26:21;;;;;;;5.55;1.55;;;16.80;99.90;;;;;;6153195;23;20017;-93
2021/06/03 12:28:49;;;;;;;6.38;1.30;;;16.70;99.90;;;;;;6154946;23;20521;-92
2021/06/03 12:31:18;;;;;;;9.85;1.48;;;16.70;99.90;;;;;;6152081;23;20078;-94
2021/06/03 12:33:46;;;;;;;5.78;1.70;;;16.60;99.90;;;;;;6145609;23;20460;-86
2021/06/03 12:36:16;;;;;;;5.07;1.27;;;16.50;99.90;;;;;;6157513;23;20032;-89
2021/06/03 12:38:44;;;;;;;3.20;1.30;;;16.40;99.90;;;;;;6160727;23;20024;-87
2021/06/03 12:41:33;;;;;;;5.72;1.50;;;16.30;99.90;;;;;;6154261;23;20409;-89
2021/06/03 12:44:15;;;;;;;6.78;1.90;;;16.30;99.90;;;;;;6155843;23;20045;-89
2021/06/03 12:46:43;;;;;;;4.45;2.10;;;16.40;99.90;;;;;;6153325;23;20110;-88
2021/06/03 12:49:13;;;;;;;4.80;1.67;;;16.50;99.90;;;;;;6152928;23;20111;-89
2021/06/03 12:52:00;;;;;;;5.60;1.77;;;16.60;99.90;;;;;;6154681;23;20461;-94
2021/06/03 12:54:56;;;;;;;9.38;2.58;;;16.60;99.90;;;;;;6153360;23;20026;-88
2021/06/03 12:57:25;;;;;;;7.28;1.50;;;16.70;99.90;;;;;;6150920;23;20028;-89
2021/06/03 12:59:55;;;;;;;5.05;1.80;;;16.70;99.90;;;;;;6154086;23;20021;-89
2021/06/03 13:02:31;;;;;;;5.00;1.77;;;16.70;99.90;;;;;;6152802;23;20088;-89
2021/06/03 13:04:59;;;;;;;4.55;1.52;;;16.70;99.90;;;;;;6154711;23;20068;-89
2021/06/03 13:07:30;;;;;;;3.75;1.55;;;16.70;99.90;;;;;;6153550;23;20096;-88
2021/06/03 13:10:08;;;;;;;5.80;1.80;;;16.70;99.90;;;;;;6153255;23;20087;-87
2021/06/03 13:12:48;;;;;;;4.72;1.70;;;16.60;99.90;;;;;;6153302;23;20009;-89
2021/06/03 13:15:16;;;;;;;4.53;1.52;;;16.60;99.90;;;;;;6153448;23;20025;-89
2021/06/03 13:17:45;;;;;;;4.53;1.33;;;16.70;99.90;;;;;;6153090;23;20484;-89
2021/06/03 13:20:18;;;;;;;6.22;1.60;;;16.70;99.90;;;;;;6152557;23;20121;-89
2021/06/03 13:22:52;;;;;;;4.57;1.50;;;16.70;99.90;;;;;;6153325;23;20021;-89
2021/06/03 13:25:20;;;;;;;3.95;1.60;;;16.80;99.90;;;;;;6153086;23;20026;-90
2021/06/03 13:27:49;;;;;;;3.75;1.38;;;16.90;99.90;;;;;;6153585;23;20013;-89
2021/06/03 13:30:40;;;;;;;4.00;1.40;;;16.90;99.90;;;;;;6151791;23;20028;-88
2021/06/03 13:33:13;;;;;;;6.38;1.35;;;17.00;99.90;;;;;;6142747;23;20389;-91
2021/06/03 13:35:46;;;;;;;5.80;1.50;;;17.00;99.90;;;;;;6153490;23;20396;-91
2021/06/03 13:38:15;;;;;;;7.78;1.90;;;16.90;99.90;;;;;;6153257;23;20076;-93
2021/06/03 13:40:44;;;;;;;4.88;1.63;;;16.80;99.90;;;;;;6153715;23;20400;-92
2021/06/03 13:43:20;;;;;;;5.75;1.58;;;16.80;99.90;;;;;;6152426;23;20080;-90
2021/06/03 13:45:50;;;;;;;7.18;1.60;;;16.70;99.90;;;;;;6153536;23;20457;-89
2021/06/03 13:48:25;;;;;;;7.90;1.40;;;16.80;99.90;;;;;;6152672;23;20021;-87
2021/06/03 13:51:04;;;;;;;6.32;1.40;;;16.70;99.90;;;;;;6154559;23;20080;-87
2021/06/03 13:53:41;;;;;;;3.97;1.23;;;16.70;99.90;;;;;;6152386;23;20096;-89
2021/06/03 13:56:27;;;;;;;7.00;1.33;;;16.80;99.90;;;;;;6152892;23;20029;-86
2021/06/03 13:58:58;;;;;;;3.70;1.00;;;16.80;99.90;;;;;;6153366;23;20018;-88
2021/06/03 14:01:27;;;;;;;4.18;1.48;;;16.70;99.90;;;;;;6152958;23;20033;-87
2021/06/03 14:03:59;;;;;;;;;;;16.70;99.90;;;;;;6153029;23;20047;-88
2021/06/03 14:06:44;;;;;;;5.72;1.48;;;16.70;99.90;;;;;;6152750;23;20017;-88
2021/06/03 14:09:17;;;;;;;7.30;1.40;;;16.70;99.90;;;;;;6152084;23;20025;-87
2021/06/03 14:14:36;;;;;;;4.25;1.30;;;16.80;99.90;;;;;;6153876;23;20057;-87
2021/06/03 14:17:10;;;;;;;5.78;1.20;;;16.90;99.90;;;;;;6153466;23;20018;-88
2021/06/03 14:19:40;;;;;;;6.03;1.17;;;17.00;99.90;;;;;;6152771;23;20327;-89
2021/06/03 14:22:10;;;;;;;5.15;1.00;;;17.10;99.90;;;;;;6152011;23;20072;-91
2021/06/03 14:24:44;;;;;;;6.82;1.63;;;17.20;99.90;;;;;;6152713;23;20501;-88
2021/06/03 14:27:19;;;;;;;3.92;1.27;;;17.20;99.90;;;;;;6153956;23;20021;-89
2021/06/03 14:29:53;;;;;;;5.20;1.10;;;17.20;99.90;;;;;;6152132;23;20076;-88
2021/06/03 14:32:31;;;;;;;3.90;1.27;;;17.30;99.90;;;;;;6152704;23;20026;-89
2021/06/03 14:35:17;;;;;;;4.70;1.33;;;17.30;99.90;;;;;;6154002;23;20543;-89
2021/06/03 14:38:14;;;;;;;3.42;1.10;;;17.40;99.90;;;;;;6153262;23;20022;-89
2021/06/03 14:40:44;;;;;;;5.57;1.33;;;17.30;99.90;;;;;;6154077;23;20457;-90
2021/06/03 14:43:21;;;;;;;5.55;1.60;;;17.30;99.90;;;;;;6152691;23;20092;-92
2021/06/03 14:45:52;;;;;;;4.72;1.30;;;17.20;99.90;;;;;;6154701;23;20021;-87
2021/06/03 14:48:24;;;;;;;7.38;1.15;;;17.10;99.90;;;;;;6152343;23;20030;-89
2021/06/03 14:50:54;;;;;;;3.65;1.23;;;17.00;99.90;;;;;;6152857;23;20409;-88
2021/06/03 14:53:23;;;;;;;5.03;1.10;;;17.00;99.90;;;;;;6152623;23;20350;-89
2021/06/03 14:55:53;;;;;;;6.03;1.50;;;16.90;99.90;;;;;;6150580;23;20102;-89
2021/06/03 14:58:21;;;;;;;3.88;0.82;;;17.00;99.90;;;;;;6153370;23;20468;-90
2021/06/03 15:00:57;;;;;;;2.88;0.90;;;17.00;99.90;;;;;;6154186;23;20022;-88
2021/06/03 15:03:25;;;;;;;4.65;1.27;;;17.10;99.90;;;;;;6154703;23;21471;-88
2021/06/03 15:05:52;;;;;;;4.13;1.15;;;17.10;99.90;;;;;;6155142;23;20017;-88
2021/06/03 15:08:20;;;;;;;7.00;1.30;;;17.20;99.90;;;;;;6154594;23;20022;-89
2021/06/03 15:10:49;;;;;;;5.15;0.95;;;17.30;99.90;;;;;;6154845;23;20081;-90
2021/06/03 15:13:23;;;;;;;4.32;1.13;;;17.30;99.90;;;;;;6154582;23;20079;-88
2021/06/03 15:15:52;;;;;;;5.20;1.20;;;17.30;99.90;;;;;;6154684;23;20460;-90
2021/06/03 15:18:19;;;;;;;;;;;17.20;99.90;;;;;;6154428;23;20026;-89
2021/06/03 15:20:49;;;;;;;5.20;1.15;;;17.10;99.90;;;;;;6155557;23;20292;-89
2021/06/03 15:23:19;;;;;;;5.32;1.10;;;17.10;99.90;;;;;;6154175;23;20025;-88
2021/06/03 15:25:46;;;;;;;5.78;1.20;;;17.10;99.90;;;;;;6155424;23;20013;-89
2021/06/03 15:28:13;;;;;;;6.00;1.50;;;17.00;99.90;;;;;;6154735;23;20028;-92
2021/06/03 15:30:42;;;;;;;6.10;1.67;;;17.00;99.90;;;;;;6154928;23;20033;-89
2021/06/03 15:33:10;;;;;;;6.57;1.20;;;17.00;99.90;;;;;;6155277;23;20076;-91
2021/06/03 15:35:41;;;;;;;4.75;1.13;;;17.00;99.90;;;;;;6155449;23;20022;-90
2021/06/03 15:38:08;;;;;;;7.50;1.42;;;17.00;99.90;;;;;;6155389;23;20076;-87
2021/06/03 15:40:37;;;;;;;6.35;1.30;;;17.00;99.90;;;;;;6154604;23;20080;-88
2021/06/03 15:43:05;;;;;;;3.70;1.25;;;17.00;99.90;;;;;;6153841;23;20076;-90
2021/06/03 15:45:32;;;;;;;4.70;1.10;;;17.00;99.90;;;;;;6155212;23;20515;-90
2021/06/03 15:48:01;;;;;;;6.18;1.30;;;16.90;99.90;;;;;;6155317;23;20022;-89
2021/06/03 15:50:32;;;;;;;3.65;1.17;;;16.90;99.90;;;;;;6155012;23;20030;-89
2021/06/03 15:53:00;;;;;;;7.95;1.48;;;16.90;99.90;;;;;;6156894;23;20017;-87
2021/06/03 15:55:28;;;;;;;5.43;1.10;;;16.80;99.90;;;;;;6153586;23;20064;-89
2021/06/03 15:57:56;;;;;;;5.18;1.42;;;16.80;99.90;;;;;;6154517;23;20076;-90
2021/06/03 16:00:29;;;;;;;6.05;1.25;;;16.80;99.90;;;;;;6158083;23;20025;-88
2021/06/03 16:02:56;;;;;;;7.45;1.30;;;16.80;99.90;;;;;;6159098;23;20084;-88
2021/06/03 16:05:24;;;;;;;4.57;1.67;;;16.80;99.90;;;;;;6154893;23;20058;-89
2021/06/03 16:07:52;;;;;;;7.25;1.40;;;16.80;99.90;;;;;;6153057;23;20021;-90
2021/06/03 16:10:31;;;;;;;5.50;1.27;;;16.80;99.90;;;;;;6153827;23;20026;-91
2021/06/03 16:13:00;;;;;;;6.60;1.10;;;16.80;99.90;;;;;;6154564;23;20084;-89
2021/06/03 16:15:28;;;;;;;6.10;1.52;;;16.80;99.90;;;;;;6153908;23;20084;-88
2021/06/03 16:18:01;;;;;;;7.80;1.25;;;16.80;99.90;;;;;;6160910;23;20072;-90
2021/06/03 16:20:30;;;;;;;3.80;1.25;;;16.70;99.90;;;;;;6161818;23;20020;-90
2021/06/03 16:22:58;;;;;;;6.50;1.83;;;16.60;99.90;;;;;;6160169;23;20025;-90
2021/06/03 16:25:25;;;;;;;6.75;1.23;;;16.70;99.90;;;;;;6161183;23;20394;-87
2021/06/03 16:27:54;;;;;;;6.82;1.83;;;16.70;99.90;;;;;;6158710;23;20025;-90
2021/06/03 16:30:28;;;;;;;6.82;1.42;;;16.70;99.90;;;;;;6153435;23;20025;-89
2021/06/03 16:33:14;;;;;;;7.30;1.60;;;16.70;99.90;;;;;;6154035;23;20021;-89
2021/06/03 16:36:02;;;;;;;9.07;1.35;;;16.70;99.90;;;;;;6153361;23;20048;-89
2021/06/03 16:38:30;;;;;;;5.90;1.40;;;16.70;99.90;;;;;;6155042;23;20025;-90
2021/06/03 16:40:57;;;;;;;5.35;1.00;;;16.60;99.90;;;;;;6154103;23;20413;-91
2021/06/03 16:43:24;;;;;;;7.50;1.40;;;16.50;99.90;;;;;;6152380;23;20048;-87
2021/06/03 16:45:54;;;;;;;4.50;1.20;;;16.40;99.90;;;;;;6153760;23;20449;-87
2021/06/03 16:48:22;;;;;;;5.30;1.20;;;16.40;99.90;;;;;;6152556;23;20014;-86
2021/06/03 16:50:52;;;;;;;6.03;1.55;;;16.40;99.90;;;;;;6153180;23;20025;-87
2021/06/03 16:53:19;;;;;;;3.80;1.20;;;16.40;99.90;;;;;;6152688;23;20017;-89
2021/06/03 16:55:46;;;;;;;6.25;1.23;;;16.40;99.90;;;;;;6152906;23;20025;-87
2021/06/03 16:58:13;;;;;;;4.65;1.25;;;16.50;99.90;;;;;;6151973;23;20029;-87
2021/06/03 17:00:50;;;;;;;5.28;1.13;;;16.40;99.90;;;;;;6154008;23;20369;-89
2021/06/03 17:03:18;;;;;;;4.13;1.33;;;16.40;99.90;;;;;;6152992;23;20025;-89
2021/06/03 17:05:45;;;;;;;7.53;1.15;;;16.40;99.90;;;;;;6154527;23;20524;-88
2021/06/03 17:08:13;;;;;;;7.55;1.33;;;16.50;99.90;;;;;;6153720;23;20022;-88
2021/06/03 17:10:43;;;;;;;5.73;1.33;;;16.50;99.90;;;;;;6153265;23;20072;-87
2021/06/03 17:13:12;;;;;;;6.00;1.70;;;16.70;99.90;;;;;;6152771;23;20384;-87
2021/06/03 17:15:40;;;;;;;7.57;1.42;;;16.70;99.90;;;;;;6153418;23;20531;-87
2021/06/03 17:18:08;;;;;;;3.65;1.30;;;16.80;99.90;;;;;;6152694;23;20025;-88
2021/06/03 17:20:41;;;;;;;5.38;1.45;;;16.70;99.90;;;;;;6153465;23;20025;-87
2021/06/03 17:23:12;;;;;;;7.25;1.40;;;16.70;99.90;;;;;;6152115;23;20014;-87
2021/06/03 17:25:40;;;;;;;4.57;1.20;;;16.60;99.90;;;;;;6153612;23;20076;-87
2021/06/03 17:28:07;;;;;;;4.95;1.40;;;16.50;99.90;;;;;;6152742;23;20088;-88
2021/06/03 17:30:38;;;;;;;5.32;1.20;;;16.60;99.90;;;;;;6152959;23;20025;-87
2021/06/03 17:33:07;;;;;;;7.03;1.30;;;16.70;99.90;;;;;;6154835;23;20014;-91
2021/06/03 17:35:35;;;;;;;5.72;1.42;;;16.90;99.90;;;;;;6154011;23;20354;-89
2021/06/03 17:38:07;;;;;;;7.53;1.67;;;17.10;99.90;;;;;;6154136;23;20021;-88
2021/06/03 17:40:35;;;;;;;7.97;1.45;;;17.20;99.90;;;;;;6152999;23;20460;-88
2021/06/03 17:43:03;;;;;;;4.07;1.25;;;17.40;99.90;;;;;;6151060;23;20032;-89
2021/06/03 17:45:41;;;;;;;4.45;1.10;;;17.40;99.90;;;;;;6152324;23;20021;-91
2021/06/03 17:48:11;;;;;;;4.05;1.00;;;17.50;99.90;;;;;;6139105;23;20432;-91
2021/06/03 17:50:47;;;;;;;;;;;17.40;99.90;;;;;;6138728;23;20017;-90
2021/06/03 17:53:14;;;;;;;;;;;17.40;99.90;;;;;;6153047;23;19926;-89
2021/06/03 17:55:42;;;;;;;;;;;17.40;99.90;;;;;;6152454;23;19923;-89
2021/06/03 17:58:09;;;;;;;;;;;17.40;99.90;;;;;;6150331;23;19932;-90
2021/06/03 18:00:40;;;;;;;;;;;17.30;99.90;;;;;;6152724;23;19927;-90
2021/06/03 18:03:07;;;;;;;;;;;17.30;99.90;;;;;;6152625;23;19923;-89
2021/06/03 18:05:35;;;;;;;;;;;17.30;99.90;;;;;;6152846;23;19939;-90
2021/06/03 18:08:06;;;;;;;;;;;17.30;99.90;;;;;;6154160;23;19921;-90
2021/06/03 18:10:36;;;;;;;;;;;17.20;99.90;;;;;;6151707;23;19920;-90
2021/06/03 18:13:03;;;;;;;;;;;17.10;99.90;;;;;;6153055;23;19940;-89
2021/06/03 18:15:30;;;;;;;;;;;17.00;99.90;;;;;;6152051;23;20241;-90
2021/06/03 18:17:57;;;;;;;;;;;16.80;99.90;;;;;;6152329;23;19921;-91
2021/06/03 18:20:26;;;;;;;;;;;16.70;99.90;;;;;;6151726;23;19991;-91
2021/06/03 18:22:53;;;;;;;;;;;16.60;99.90;;;;;;6151447;23;19975;-89
2021/06/03 18:25:21;;;;;;;;;;;16.50;99.90;;;;;;6149509;23;19928;-90
2021/06/03 18:27:48;;;;;;;;;;;16.40;99.90;;;;;;6150743;23;19918;-90
2021/06/03 18:30:18;;;;;;;;;;;16.30;99.90;;;;;;6151102;23;19924;-89
2021/06/03 18:32:46;;;;;;;;;;;16.20;99.90;;;;;;6157811;23;20357;-92
2021/06/03 18:35:13;;;;;;;;;;;16.20;99.90;;;;;;6162499;23;19927;-89
2021/06/03 18:37:40;;;;;;;;;;;16.20;99.90;;;;;;6160815;23;19921;-88
2021/06/03 18:40:09;;;;;;;;;;;16.10;99.50;;;;;;6151651;23;19979;-92
2021/06/03 18:42:36;;;;;;;;;;;16.00;99.60;;;;;;6154518;23;20347;-90
2021/06/03 18:45:08;;;;;;;;;;;15.90;99.10;;;;;;6155696;23;19957;-89
2021/06/03 18:47:35;;;;;;;;;;;15.90;99.60;;;;;;6143366;23;19916;-90
2021/06/03 18:50:03;;;;;;;;;;;15.80;99.80;;;;;;6153886;23;20513;-88
2021/06/03 18:52:30;;;;;;;;;;;15.80;99.90;;;;;;6154173;23;19925;-89
2021/06/03 18:54:58;;;;;;;;;;;15.80;99.90;;;;;;6156194;23;19916;-90
2021/06/03 18:57:27;;;;;;;;;;;15.70;99.90;;;;;;6153642;23;19917;-90
2021/06/03 18:59:54;;;;;;;;;;;15.70;99.90;;;;;;6154682;23;19916;-89
2021/06/03 19:02:21;;;;;;;;;;;15.60;99.90;;;;;;6144760;23;19920;-89
2021/06/03 19:04:48;;;;;;;;;;;15.60;99.90;;;;;;6164495;23;19917;-90
2021/06/03 19:07:16;;;;;;;;;;;15.60;99.90;;;;;;6154848;23;19963;-91
2021/06/03 19:09:43;;;;;;;;;;;15.50;99.90;;;;;;6157073;23;19917;-93
2021/06/03 19:12:10;;;;;;;;;;;15.70;99.90;;;;;;6153591;23;19917;-91
2021/06/03 19:14:37;;;;;;;;;;;16.10;99.90;;;;;;6155997;23;19920;-89
2021/06/03 19:17:04;;;;;;;;;;;16.60;99.90;;;;;;6155145;23;20037;-90
2021/06/03 19:19:33;;;;;;;;;;;17.00;98.90;;;;;;6159491;23;19927;-89
2021/06/03 19:22:00;;;;;;;;;;;17.20;98.70;;;;;;6162763;23;19917;-87
2021/06/03 19:24:29;;;;;;;;;;;17.30;98.80;;;;;;6155379;23;19967;-88
2021/06/03 19:26:57;;;;;;;;;;;17.20;98.70;;;;;;6155307;23;19952;-89
2021/06/03 19:29:24;;;;;;;;;;;17.10;98.30;;;;;;6153552;23;19931;-87
2021/06/03 19:31:54;;;;;;;;;;;16.80;98.70;;;;;;6153974;23;19921;-89
2021/06/03 19:34:20;;;;;;;;;;;16.50;98.90;;;;;;6151430;23;19921;-87
2021/06/03 19:36:47;;;;;;;;;;;16.30;99.50;;;;;;6154658;23;20289;-88
2021/06/03 19:39:16;;;;;;;;;;;16.10;99.80;;;;;;6152877;23;19920;-86
2021/06/03 19:41:43;;;;;;;;;;;15.90;99.90;;;;;;6152932;23;19916;-89
2021/06/03 19:44:09;;;;;;;;;;;15.80;99.90;;;;;;6153216;23;19917;-89
2021/06/03 19:46:36;;;;;;;;;;;15.70;99.90;;;;;;6153300;23;20286;-88
2021/06/03 19:49:04;;;;;;;;;;;15.50;99.90;;;;;;6151986;23;19917;-89
2021/06/03 19:51:31;;;;;;;;;;;15.50;99.90;;;;;;6152516;23;19916;-89
2021/06/03 19:53:58;;;;;;;;;;;15.20;99.90;;;;;;6154403;23;19920;-88
2021/06/03 19:56:27;;;;;;;;;;;15.10;99.90;;;;;;6151813;23;20312;-88
2021/06/03 19:58:55;;;;;;;;;;;15.00;99.90;;;;;;6153415;23;19944;-87
2021/06/03 20:01:22;;;;;;;;;;;14.80;99.90;;;;;;6151501;23;19921;-90
2021/06/03 20:03:49;;;;;;;;;;;14.70;99.90;;;;;;6149318;23;20375;-90
2021/06/03 20:06:16;;;;;;;;;;;14.50;99.90;;;;;;6150398;23;19916;-89
2021/06/03 20:08:43;;;;;;;;;;;14.40;99.90;;;;;;6150648;23;20364;-89
2021/06/03 20:11:11;;;;;;;;;;;14.30;99.90;;;;;;6150531;23;19996;-91
2021/06/03 20:13:37;;;;;;;;;;;14.20;99.90;;;;;;6151170;23;19920;-89
2021/06/03 20:16:04;;;;;;;;;;;14.10;99.90;;;;;;6150509;23;19991;-89
2021/06/03 20:18:33;;;;;;;;;;;14.00;99.90;;;;;;6150542;23;19948;-89
2021/06/03 20:21:02;;;;;;;;;;;13.90;99.90;;;;;;6150264;23;19923;-88
2021/06/03 20:23:30;;;;;;;;;;;13.80;99.90;;;;;;6149609;23;19976;-89
2021/06/03 20:25:57;;;;;;;;;;;13.70;99.90;;;;;;6151378;23;19923;-90
2021/06/03 20:28:24;;;;;;;;;;;13.70;99.90;;;;;;6149118;23;19924;-90
2021/06/03 20:30:53;;;;;;;;;;;13.60;99.90;;;;;;6150747;23;19920;-89
2021/06/03 20:33:22;;;;;;;;;;;13.60;99.90;;;;;;6150638;23;20340;-90
2021/06/03 20:35:52;;;;;;;;;;;13.50;99.90;;;;;;6149985;23;19927;-91
2021/06/03 20:38:20;;;;;;;;;;;13.50;99.90;;;;;;6147865;23;19931;-88
2021/06/03 20:40:48;;;;;;;;;;;13.40;99.90;;;;;;6151500;23;19940;-89
2021/06/03 20:43:15;;;;;;;;;;;13.40;99.90;;;;;;6155004;23;19916;-89
2021/06/03 20:45:42;;;;;;;;;;;13.30;99.90;;;;;;6153957;23;19920;-87
2021/06/03 20:48:09;;;;;;;;;;;13.30;99.90;;;;;;6154736;23;20237;-88
2021/06/03 20:50:38;;;;;;;;;;;13.30;99.90;;;;;;6154075;23;19917;-89
2021/06/03 20:53:06;;;;;;;;;;;13.20;99.90;;;;;;6152922;23;19920;-88
2021/06/03 20:55:34;;;;;;;;;;;13.20;99.90;;;;;;6153041;23;19967;-88
2021/06/03 20:58:01;;;;;;;;;;;13.10;99.90;;;;;;6153130;23;19967;-88
2021/06/03 21:00:29;;;;;;;;;;;13.10;99.90;;;;;;6152170;23;20045;-89